Time;durP1;ratioP1;P1;durP2;ratioP2;P2;SDS_P1;SDS_P2;PMS_P1;PMS_P2;Temp;Humidity;BMP_temperature;BMP_pressure;BME280_temperature;BME280_humidity;BME280_pressure;Samples;Min_cycle;Max_cycle;Signal;HPM_P1;HPM_P2
2022/12/21 00:01:42;;;;;;;25.05;16.08;;;;;;;;;;4999926;28;20089;-67
2022/12/21 00:04:08;;;;;;;27.85;14.63;;;;;;;;;;4999007;28;20109;-67
2022/12/21 00:06:35;;;;;;;31.95;18.30;;;;;;;;;;5000125;28;20114;-67
2022/12/21 00:09:03;;;;;;;31.38;18.02;;;;;;;;;;5000279;28;20137;-68
2022/12/21 00:11:30;;;;;;;27.95;16.48;;;;;;;;;;4999743;28;20077;-66
2022/12/21 00:13:57;;;;;;;28.63;16.20;;;;;;;;;;5000513;28;20056;-68
2022/12/21 00:16:24;;;;;;;27.67;17.40;;;;;;;;;;4997997;28;20475;-67
2022/12/21 00:18:50;;;;;;;29.13;17.60;;;;;;;;;;5000012;28;20144;-65
2022/12/21 00:21:21;;;;;;;26.90;16.60;;;;;;;;;;4999563;28;20141;-67
2022/12/21 00:23:48;;;;;;;22.50;13.18;;;;;;;;;;5000508;28;20104;-65
2022/12/21 00:26:16;;;;;;;33.13;14.85;;;;;;;;;;4998718;28;20049;-66
2022/12/21 00:28:42;;;;;;;27.63;16.27;;;;;;;;;;5001927;28;20820;-66
2022/12/21 00:31:10;;;;;;;23.20;14.48;;;;;;;;;;5015664;28;20055;-67
2022/12/21 00:33:37;;;;;;;22.52;13.88;;;;;;;;;;5001096;28;20084;-67
2022/12/21 00:36:04;;;;;;;22.63;13.52;;;;;;;;;;5000501;28;20065;-65
2022/12/21 00:38:31;;;;;;;20.65;13.68;;;;;;;;;;5013798;28;20042;-65
2022/12/21 00:40:59;;;;;;;21.30;13.38;;;;;;;;;;4999613;28;20054;-67
2022/12/21 00:43:25;;;;;;;22.08;13.85;;;;;;;;;;4999933;28;20042;-67
2022/12/21 00:45:50;;;;;;;26.75;14.95;;;;;;;;;;4999907;28;20033;-66
2022/12/21 00:48:16;;;;;;;25.73;14.85;;;;;;;;;;4998612;28;20038;-68
2022/12/21 00:50:42;;;;;;;21.92;12.80;;;;;;;;;;5014045;28;20993;-65
2022/12/21 00:53:08;;;;;;;22.77;13.90;;;;;;;;;;5015306;28;20061;-67
2022/12/21 00:55:34;;;;;;;23.35;13.55;;;;;;;;;;4999610;28;20108;-67
2022/12/21 00:58:00;;;;;;;24.70;14.73;;;;;;;;;;5000600;28;20045;-67
2022/12/21 01:00:26;;;;;;;19.15;12.55;;;;;;;;;;5012158;28;20046;-64
2022/12/21 01:02:52;;;;;;;22.63;13.98;;;;;;;;;;5014738;28;20045;-65
2022/12/21 01:05:18;;;;;;;23.00;15.02;;;;;;;;;;5014362;28;20069;-65
2022/12/21 01:07:44;;;;;;;23.15;15.38;;;;;;;;;;5012148;28;20422;-64
2022/12/21 01:10:10;;;;;;;24.38;15.65;;;;;;;;;;5010658;28;20487;-65
2022/12/21 01:12:36;;;;;;;24.90;15.82;;;;;;;;;;4995814;28;20041;-65
2022/12/21 01:15:03;;;;;;;26.02;16.45;;;;;;;;;;4997002;28;20045;-65
2022/12/21 01:17:29;;;;;;;25.75;15.35;;;;;;;;;;4995700;28;20053;-64
2022/12/21 01:19:54;;;;;;;23.70;15.18;;;;;;;;;;5013035;28;20049;-62
2022/12/21 01:22:20;;;;;;;23.50;14.77;;;;;;;;;;5017186;28;20107;-63
2022/12/21 01:24:47;;;;;;;25.95;14.68;;;;;;;;;;5017894;28;20111;-62
2022/12/21 01:27:12;;;;;;;22.90;14.70;;;;;;;;;;5003833;28;20145;-65
2022/12/21 01:29:38;;;;;;;24.98;15.18;;;;;;;;;;5001290;28;20487;-64
2022/12/21 01:32:04;;;;;;;21.33;14.05;;;;;;;;;;5017549;28;20783;-66
2022/12/21 01:34:32;;;;;;;23.98;14.75;;;;;;;;;;5002279;28;20052;-65
2022/12/21 01:36:58;;;;;;;23.02;14.43;;;;;;;;;;5003172;28;20045;-65
2022/12/21 01:39:23;;;;;;;25.40;14.30;;;;;;;;;;5018037;28;20185;-65
2022/12/21 01:41:49;;;;;;;25.48;14.95;;;;;;;;;;5016355;28;20384;-65
2022/12/21 01:44:48;;;;;;;25.20;14.52;;;;;;;;;;5002691;28;20197;-65
2022/12/21 01:47:19;;;;;;;24.70;14.55;;;;;;;;;;5025884;28;20073;-65
2022/12/21 01:49:50;;;;;;;26.92;15.60;;;;;;;;;;5002724;28;20041;-63
2022/12/21 01:52:16;;;;;;;24.80;14.90;;;;;;;;;;5000796;28;20053;-65
2022/12/21 01:54:51;;;;;;;29.15;16.40;;;;;;;;;;5002108;28;20481;-65
2022/12/21 01:57:19;;;;;;;26.98;13.75;;;;;;;;;;5002744;28;20046;-64
2022/12/21 01:59:53;;;;;;;21.10;13.55;;;;;;;;;;5002573;28;20069;-62
2022/12/21 02:02:25;;;;;;;24.27;14.38;;;;;;;;;;5014731;28;20042;-64
2022/12/21 02:04:52;;;;;;;21.70;14.45;;;;;;;;;;5002748;28;20073;-65
2022/12/21 02:07:19;;;;;;;26.63;14.43;;;;;;;;;;4998606;28;20061;-62
2022/12/21 02:09:45;;;;;;;25.17;14.77;;;;;;;;;;5014871;28;20049;-65
2022/12/21 02:12:14;;;;;;;24.42;15.43;;;;;;;;;;5002147;28;20037;-65
2022/12/21 02:14:43;;;;;;;26.58;14.52;;;;;;;;;;5000115;28;20053;-64
2022/12/21 02:17:24;;;;;;;23.17;14.27;;;;;;;;;;5016967;28;20137;-64
2022/12/21 02:19:55;;;;;;;25.45;14.57;;;;;;;;;;5001625;28;20077;-62
2022/12/21 02:22:39;;;;;;;23.77;14.48;;;;;;;;;;5000823;28;20054;-64
2022/12/21 02:25:49;;;;;;;21.73;13.10;;;;;;;;;;5000586;28;20058;-65
2022/12/21 02:28:24;;;;;;;21.00;13.02;;;;;;;;;;5001687;28;20045;-65
2022/12/21 02:31:10;;;;;;;22.92;13.77;;;;;;;;;;5031187;28;20068;-65
2022/12/21 02:33:45;;;;;;;20.15;11.85;;;;;;;;;;5016405;28;20042;-64
2022/12/21 02:36:36;;;;;;;20.17;13.35;;;;;;;;;;4999956;28;20060;-61
2022/12/21 02:39:15;;;;;;;21.40;12.75;;;;;;;;;;5030066;28;20073;-62
2022/12/21 02:41:51;;;;;;;19.85;13.05;;;;;;;;;;5000375;28;20053;-62
2022/12/21 02:44:30;;;;;;;19.80;12.07;;;;;;;;;;5017396;28;20510;-64
2022/12/21 02:47:26;;;;;;;25.20;13.07;;;;;;;;;;5027905;28;20046;-62
2022/12/21 02:50:01;;;;;;;19.67;12.65;;;;;;;;;;5000734;28;20095;-64
2022/12/21 02:52:30;;;;;;;20.08;11.88;;;;;;;;;;5015055;28;20057;-65
2022/12/21 02:54:59;;;;;;;23.15;12.50;;;;;;;;;;5001898;28;20050;-63
2022/12/21 02:57:37;;;;;;;21.17;11.90;;;;;;;;;;4999865;28;20061;-65
2022/12/21 03:00:08;;;;;;;21.17;12.57;;;;;;;;;;5016644;28;20041;-65
2022/12/21 03:02:49;;;;;;;21.85;11.88;;;;;;;;;;4998855;28;20161;-62
2022/12/21 03:05:18;;;;;;;19.40;10.95;;;;;;;;;;5016477;28;20651;-65
2022/12/21 03:07:43;;;;;;;19.80;11.68;;;;;;;;;;5016682;28;20072;-63
2022/12/21 03:10:22;;;;;;;18.13;11.23;;;;;;;;;;5015356;28;20041;-65
2022/12/21 03:13:03;;;;;;;22.88;11.35;;;;;;;;;;5031025;28;20046;-65
2022/12/21 03:15:28;;;;;;;18.20;11.88;;;;;;;;;;5000958;28;20042;-66
2022/12/21 03:18:41;;;;;;;18.88;12.25;;;;;;;;;;5016832;28;20054;-64
2022/12/21 03:21:22;;;;;;;17.90;11.23;;;;;;;;;;4979579;28;20081;-66
2022/12/21 03:24:03;;;;;;;18.73;11.02;;;;;;;;;;5001279;28;20125;-66
2022/12/21 03:26:39;;;;;;;16.98;10.82;;;;;;;;;;4999452;28;20510;-66
2022/12/21 03:29:06;;;;;;;17.38;10.50;;;;;;;;;;5001477;28;20544;-65
2022/12/21 03:31:38;;;;;;;15.00;10.07;;;;;;;;;;4997987;28;20141;-65
2022/12/21 03:34:10;;;;;;;15.27;10.60;;;;;;;;;;5001350;28;20048;-66
2022/12/21 03:36:47;;;;;;;17.95;9.55;;;;;;;;;;5000242;28;20046;-64
2022/12/21 03:39:16;;;;;;;17.13;9.98;;;;;;;;;;5001127;28;20065;-64
2022/12/21 03:41:52;;;;;;;32.25;16.77;;;;;;;;;;4998670;28;20061;-64
2022/12/21 03:44:24;;;;;;;34.60;17.48;;;;;;;;;;4999413;28;20058;-65
2022/12/21 03:46:57;;;;;;;26.20;14.20;;;;;;;;;;5000397;28;20065;-66
2022/12/21 03:49:33;;;;;;;30.10;15.35;;;;;;;;;;5001010;28;20049;-64
2022/12/21 03:52:06;;;;;;;26.05;13.63;;;;;;;;;;4999986;28;20038;-64
2022/12/21 03:54:58;;;;;;;20.80;12.13;;;;;;;;;;4999002;28;20111;-65
2022/12/21 03:57:25;;;;;;;16.67;11.30;;;;;;;;;;5000384;28;20041;-65
2022/12/21 03:59:55;;;;;;;21.77;13.00;;;;;;;;;;5000902;28;20050;-64
2022/12/21 04:03:14;;;;;;;20.55;10.68;;;;;;;;;;4998674;28;20062;-65
2022/12/21 04:05:48;;;;;;;18.25;9.57;;;;;;;;;;4975430;28;20046;-65
2022/12/21 04:08:14;;;;;;;16.27;9.80;;;;;;;;;;4992464;28;20068;-64
2022/12/21 04:10:40;;;;;;;15.85;9.77;;;;;;;;;;4999647;28;20135;-64
2022/12/21 04:13:05;;;;;;;16.35;9.48;;;;;;;;;;4999499;28;20088;-66
2022/12/21 04:19:57;;;;;;;16.42;9.60;;;;;;;;;;4999267;28;20502;-66
2022/12/21 04:21:01;;;;;;;17.73;10.20;;;;;;;;;;5021066;28;20057;-65
2022/12/21 04:28:54;;;;;;;20.17;12.15;;;;;;;;;;5030135;28;20062;-66
2022/12/21 04:31:20;;;;;;;21.15;12.10;;;;;;;;;;4995635;28;20042;-65
2022/12/21 04:33:45;;;;;;;17.42;12.70;;;;;;;;;;4992492;28;20096;-64
2022/12/21 04:38:56;;;;;;;19.30;10.95;;;;;;;;;;5001219;28;20041;-64
2022/12/21 04:41:22;;;;;;;17.55;10.90;;;;;;;;;;4998059;28;20410;-67
2022/12/21 04:43:47;;;;;;;18.77;11.40;;;;;;;;;;4999604;28;20053;-64
2022/12/21 04:46:14;;;;;;;16.85;10.88;;;;;;;;;;4999230;28;20161;-65
2022/12/21 04:48:40;;;;;;;18.10;11.55;;;;;;;;;;4997473;28;20049;-66
2022/12/21 04:51:12;;;;;;;19.73;11.00;;;;;;;;;;4998924;28;20068;-66
2022/12/21 04:53:38;;;;;;;16.52;10.15;;;;;;;;;;4999337;28;20053;-65
2022/12/21 04:56:04;;;;;;;15.38;9.45;;;;;;;;;;5000855;28;20052;-65
2022/12/21 04:58:31;;;;;;;12.90;8.90;;;;;;;;;;5001006;28;20042;-63
2022/12/21 05:00:56;;;;;;;19.40;10.98;;;;;;;;;;5002918;28;20054;-66
2022/12/21 05:03:22;;;;;;;15.38;10.18;;;;;;;;;;5002419;28;20049;-65
2022/12/21 05:05:47;;;;;;;19.08;9.68;;;;;;;;;;5003037;28;20137;-66
2022/12/21 05:08:13;;;;;;;14.52;10.23;;;;;;;;;;5018587;28;20054;-65
2022/12/21 05:10:39;;;;;;;16.02;8.65;;;;;;;;;;4999259;28;20137;-67
2022/12/21 05:13:04;;;;;;;15.52;9.65;;;;;;;;;;5000725;28;20132;-67
2022/12/21 05:15:30;;;;;;;17.30;10.00;;;;;;;;;;5000208;28;20149;-65
2022/12/21 05:17:57;;;;;;;13.32;8.98;;;;;;;;;;5000845;28;20128;-66
2022/12/21 05:20:23;;;;;;;19.80;10.18;;;;;;;;;;4998461;28;20045;-67
2022/12/21 05:22:48;;;;;;;13.98;9.40;;;;;;;;;;5000270;28;20061;-67
2022/12/21 05:25:14;;;;;;;14.60;10.02;;;;;;;;;;5015517;28;20053;-65
2022/12/21 05:27:39;;;;;;;14.73;9.75;;;;;;;;;;5000459;28;20473;-68
2022/12/21 05:30:05;;;;;;;16.38;10.60;;;;;;;;;;5003377;28;20050;-65
2022/12/21 05:32:30;;;;;;;15.93;10.05;;;;;;;;;;5000048;28;20080;-67
2022/12/21 05:34:56;;;;;;;14.10;8.13;;;;;;;;;;5008793;28;21173;-68
2022/12/21 05:37:21;;;;;;;11.73;7.82;;;;;;;;;;5004368;28;20042;-66
2022/12/21 05:39:46;;;;;;;9.77;6.97;;;;;;;;;;5004759;28;20115;-67
2022/12/21 05:42:12;;;;;;;14.43;7.75;;;;;;;;;;5002216;28;20046;-66
2022/12/21 05:44:37;;;;;;;14.88;8.65;;;;;;;;;;5000701;28;20061;-65
2022/12/21 05:47:03;;;;;;;19.83;9.18;;;;;;;;;;5001341;28;20514;-65
2022/12/21 05:49:28;;;;;;;12.68;8.48;;;;;;;;;;5003093;28;20502;-69
2022/12/21 05:51:54;;;;;;;14.00;8.60;;;;;;;;;;5003162;28;20049;-67
2022/12/21 05:54:19;;;;;;;13.70;8.65;;;;;;;;;;5001253;28;20081;-67
2022/12/21 05:56:45;;;;;;;15.30;9.57;;;;;;;;;;4988410;28;20050;-68
2022/12/21 05:59:10;;;;;;;12.43;9.07;;;;;;;;;;5002335;28;20491;-69
2022/12/21 06:01:36;;;;;;;13.18;8.85;;;;;;;;;;5002145;28;20038;-69
2022/12/21 06:04:02;;;;;;;15.00;9.60;;;;;;;;;;5003496;28;20056;-69
2022/12/21 06:06:27;;;;;;;10.50;8.05;;;;;;;;;;5002835;28;20074;-69
2022/12/21 06:08:53;;;;;;;14.40;8.45;;;;;;;;;;5001634;28;20084;-68
2022/12/21 06:11:21;;;;;;;11.15;7.75;;;;;;;;;;5002986;28;20042;-68
2022/12/21 06:13:46;;;;;;;12.25;7.82;;;;;;;;;;4999612;28;20139;-68
2022/12/21 06:16:16;;;;;;;14.77;7.95;;;;;;;;;;5012571;28;20930;-65
2022/12/21 06:18:41;;;;;;;11.10;8.00;;;;;;;;;;4996797;28;20092;-66
2022/12/21 06:21:09;;;;;;;10.55;7.53;;;;;;;;;;5012561;28;20396;-69
2022/12/21 06:23:35;;;;;;;10.63;7.57;;;;;;;;;;4999001;28;20886;-68
2022/12/21 06:26:02;;;;;;;13.50;7.43;;;;;;;;;;4997148;28;20046;-67
2022/12/21 06:28:28;;;;;;;14.70;8.98;;;;;;;;;;4997724;28;20046;-69
2022/12/21 06:30:54;;;;;;;14.18;8.98;;;;;;;;;;4999637;28;20048;-68
2022/12/21 06:33:22;;;;;;;12.10;8.52;;;;;;;;;;4999083;28;20141;-68
2022/12/21 06:35:52;;;;;;;12.20;9.02;;;;;;;;;;4999974;28;20049;-69
2022/12/21 06:38:17;;;;;;;12.68;9.35;;;;;;;;;;4999466;28;20092;-66
2022/12/21 06:40:43;;;;;;;11.85;7.47;;;;;;;;;;5001416;28;20045;-68
2022/12/21 06:43:08;;;;;;;14.05;8.27;;;;;;;;;;5000832;28;20046;-68
2022/12/21 06:45:34;;;;;;;12.73;8.18;;;;;;;;;;5001179;28;20085;-66
2022/12/21 06:47:59;;;;;;;14.68;8.07;;;;;;;;;;4999535;28;20128;-68
2022/12/21 06:50:25;;;;;;;13.85;8.02;;;;;;;;;;5000809;28;20049;-67
2022/12/21 06:52:51;;;;;;;12.55;8.73;;;;;;;;;;5000341;28;20461;-68
2022/12/21 06:55:16;;;;;;;22.58;8.93;;;;;;;;;;5000424;28;20585;-66
2022/12/21 06:57:43;;;;;;;13.65;8.25;;;;;;;;;;5000864;28;20041;-68
2022/12/21 07:00:13;;;;;;;10.77;7.20;;;;;;;;;;4999946;28;20050;-69
2022/12/21 07:02:38;;;;;;;11.52;7.80;;;;;;;;;;4999477;28;20042;-72
2022/12/21 07:05:04;;;;;;;16.65;8.55;;;;;;;;;;5000968;28;20057;-71
2022/12/21 07:07:29;;;;;;;12.20;7.95;;;;;;;;;;5000397;28;20524;-69
2022/12/21 07:09:55;;;;;;;11.73;8.07;;;;;;;;;;4999714;28;20045;-67
2022/12/21 07:12:20;;;;;;;13.43;8.13;;;;;;;;;;4999334;28;20050;-67
2022/12/21 07:14:46;;;;;;;11.95;7.82;;;;;;;;;;5001094;28;20534;-68
2022/12/21 07:17:11;;;;;;;16.17;8.32;;;;;;;;;;5000449;28;20053;-67
2022/12/21 07:19:36;;;;;;;10.82;8.05;;;;;;;;;;4999991;28;20104;-67
2022/12/21 07:22:02;;;;;;;13.57;8.85;;;;;;;;;;4998021;28;20636;-68
2022/12/21 07:24:27;;;;;;;13.23;9.40;;;;;;;;;;4999871;28;20053;-69
2022/12/21 07:26:54;;;;;;;11.95;9.13;;;;;;;;;;5000488;28;20049;-70
2022/12/21 07:29:20;;;;;;;13.38;9.00;;;;;;;;;;5000358;28;20053;-68
2022/12/21 07:31:45;;;;;;;12.75;8.88;;;;;;;;;;4998221;28;20419;-69
2022/12/21 07:34:11;;;;;;;13.85;9.18;;;;;;;;;;5000611;28;20100;-68
2022/12/21 07:36:36;;;;;;;14.65;9.32;;;;;;;;;;4999353;28;20072;-69
2022/12/21 07:39:02;;;;;;;14.20;8.52;;;;;;;;;;5000302;28;20506;-68
2022/12/21 07:41:27;;;;;;;13.93;8.88;;;;;;;;;;4998305;28;20050;-68
2022/12/21 07:43:53;;;;;;;17.35;8.80;;;;;;;;;;5015664;28;20060;-69
2022/12/21 07:46:44;;;;;;;15.80;8.93;;;;;;;;;;4998006;28;20513;-66
2022/12/21 07:49:10;;;;;;;14.60;8.32;;;;;;;;;;5013836;28;20037;-68
2022/12/21 07:51:36;;;;;;;16.10;8.65;;;;;;;;;;4999942;28;20041;-68
2022/12/21 07:54:01;;;;;;;14.13;8.98;;;;;;;;;;4998571;28;20052;-67
2022/12/21 07:56:27;;;;;;;18.10;9.93;;;;;;;;;;5014733;28;20053;-69
2022/12/21 07:58:52;;;;;;;14.35;8.55;;;;;;;;;;4999153;28;20058;-68
2022/12/21 08:01:18;;;;;;;18.77;9.95;;;;;;;;;;5000549;28;20085;-69
2022/12/21 08:03:45;;;;;;;15.52;9.88;;;;;;;;;;4996999;28;21026;-70
2022/12/21 08:06:11;;;;;;;15.95;9.38;;;;;;;;;;5000050;28;20066;-69
2022/12/21 08:08:38;;;;;;;13.00;8.73;;;;;;;;;;4998578;28;20038;-67
2022/12/21 08:11:09;;;;;;;13.88;9.63;;;;;;;;;;5000315;28;20045;-67
2022/12/21 08:13:34;;;;;;;13.65;9.75;;;;;;;;;;5014331;28;20050;-69
2022/12/21 08:16:05;;;;;;;16.85;9.60;;;;;;;;;;4998968;28;20042;-68
2022/12/21 08:18:32;;;;;;;15.55;10.77;;;;;;;;;;4998360;28;20054;-69
2022/12/21 08:20:57;;;;;;;13.63;9.82;;;;;;;;;;5000514;28;20050;-70
2022/12/21 08:23:23;;;;;;;15.73;8.80;;;;;;;;;;4999078;28;20050;-68
2022/12/21 08:25:48;;;;;;;13.07;8.98;;;;;;;;;;4998917;28;20052;-69
2022/12/21 08:28:14;;;;;;;17.40;9.63;;;;;;;;;;4997893;28;20112;-69
2022/12/21 08:30:40;;;;;;;16.55;10.07;;;;;;;;;;5000495;28;20139;-68
2022/12/21 08:33:05;;;;;;;15.48;9.32;;;;;;;;;;5018664;28;20061;-69
2022/12/21 08:35:31;;;;;;;14.82;10.60;;;;;;;;;;5004153;28;20050;-68
2022/12/21 08:37:56;;;;;;;14.75;10.15;;;;;;;;;;5001588;28;20665;-66
2022/12/21 08:40:22;;;;;;;14.18;9.63;;;;;;;;;;5003030;28;20139;-69
2022/12/21 08:42:47;;;;;;;15.50;9.20;;;;;;;;;;5003300;28;20183;-69
2022/12/21 08:45:12;;;;;;;14.00;9.68;;;;;;;;;;5003661;28;20184;-69
2022/12/21 08:47:39;;;;;;;16.70;10.77;;;;;;;;;;5001141;28;20135;-68
2022/12/21 08:50:05;;;;;;;13.50;9.25;;;;;;;;;;5003617;28;20161;-69
2022/12/21 08:52:31;;;;;;;15.75;9.93;;;;;;;;;;5001972;28;20060;-69
2022/12/21 08:54:57;;;;;;;16.75;9.82;;;;;;;;;;5003990;28;20049;-70
2022/12/21 08:57:23;;;;;;;16.67;10.80;;;;;;;;;;5003479;28;20065;-71
2022/12/21 08:59:48;;;;;;;21.05;9.82;;;;;;;;;;5000906;28;20069;-70
2022/12/21 09:02:14;;;;;;;17.05;9.90;;;;;;;;;;5002494;28;20080;-72
2022/12/21 09:04:39;;;;;;;18.08;9.63;;;;;;;;;;5002711;28;20407;-71
2022/12/21 09:07:06;;;;;;;14.18;9.27;;;;;;;;;;5003794;28;20049;-72
2022/12/21 09:09:31;;;;;;;15.10;9.52;;;;;;;;;;5001080;28;20834;-71
2022/12/21 09:11:57;;;;;;;12.95;8.90;;;;;;;;;;5017921;28;20034;-71
2022/12/21 09:14:23;;;;;;;13.73;8.40;;;;;;;;;;5002878;28;20077;-71
2022/12/21 09:16:49;;;;;;;12.88;8.85;;;;;;;;;;5003373;28;20124;-70
2022/12/21 09:19:14;;;;;;;11.80;8.93;;;;;;;;;;5001800;28;20696;-67
2022/12/21 09:21:39;;;;;;;14.15;9.05;;;;;;;;;;5000447;28;20479;-67
2022/12/21 09:24:05;;;;;;;14.18;9.15;;;;;;;;;;5003288;28;20477;-71
2022/12/21 09:26:31;;;;;;;14.80;10.10;;;;;;;;;;5002131;28;20050;-70
2022/12/21 09:28:56;;;;;;;16.73;9.93;;;;;;;;;;5002488;28;20061;-69
2022/12/21 09:31:22;;;;;;;14.43;9.10;;;;;;;;;;5000757;28;20041;-69
2022/12/21 09:33:50;;;;;;;18.05;9.02;;;;;;;;;;5002509;28;20049;-71
2022/12/21 09:36:16;;;;;;;16.48;8.20;;;;;;;;;;5002576;28;20865;-72
2022/12/21 09:38:41;;;;;;;12.18;8.30;;;;;;;;;;5001065;28;20054;-70
2022/12/21 09:41:07;;;;;;;12.73;7.97;;;;;;;;;;5000237;28;20049;-68
2022/12/21 09:43:44;;;;;;;13.40;8.18;;;;;;;;;;5000477;28;20432;-70
2022/12/21 09:46:12;;;;;;;12.75;7.78;;;;;;;;;;5002590;28;20045;-71
2022/12/21 09:48:56;;;;;;;10.50;6.82;;;;;;;;;;5000495;28;20119;-68
2022/12/21 09:51:26;;;;;;;10.50;7.28;;;;;;;;;;5017037;28;20049;-67
2022/12/21 09:54:10;;;;;;;10.90;7.32;;;;;;;;;;5000134;28;20165;-70
2022/12/21 09:56:45;;;;;;;13.90;8.43;;;;;;;;;;5001754;28;20060;-71
2022/12/21 09:59:13;;;;;;;16.80;9.27;;;;;;;;;;5001703;28;20045;-71
2022/12/21 10:02:00;;;;;;;18.88;9.95;;;;;;;;;;5001014;28;20084;-69
2022/12/21 10:04:47;;;;;;;15.35;9.13;;;;;;;;;;5000198;28;20050;-70
2022/12/21 10:07:44;;;;;;;11.85;9.10;;;;;;;;;;5002129;28;20490;-71
2022/12/21 10:10:39;;;;;;;13.43;8.93;;;;;;;;;;5002486;28;20407;-70
2022/12/21 10:13:25;;;;;;;12.32;8.68;;;;;;;;;;5027784;28;20115;-70
2022/12/21 10:16:14;;;;;;;15.50;10.02;;;;;;;;;;5000728;28;20046;-70
2022/12/21 10:19:00;;;;;;;16.45;9.68;;;;;;;;;;5000739;28;20415;-72
2022/12/21 10:21:56;;;;;;;15.95;9.68;;;;;;;;;;5001789;28;20419;-70
2022/12/21 10:24:49;;;;;;;12.77;8.65;;;;;;;;;;5001271;28;20056;-69
2022/12/21 10:27:26;;;;;;;14.25;8.23;;;;;;;;;;4996366;28;20045;-71
2022/12/21 10:29:56;;;;;;;9.95;7.57;;;;;;;;;;5000969;28;20046;-70
2022/12/21 10:32:22;;;;;;;12.77;8.85;;;;;;;;;;4999780;28;20107;-70
2022/12/21 10:34:53;;;;;;;12.05;9.00;;;;;;;;;;5001361;28;20056;-67
2022/12/21 10:37:20;;;;;;;13.52;9.65;;;;;;;;;;5000556;28;20046;-68
2022/12/21 10:39:51;;;;;;;13.07;9.32;;;;;;;;;;5005187;28;20043;-69
2022/12/21 10:42:38;;;;;;;13.02;9.00;;;;;;;;;;5001678;28;20057;-69
2022/12/21 10:45:05;;;;;;;14.63;9.55;;;;;;;;;;5026390;28;20050;-71
2022/12/21 10:47:30;;;;;;;15.20;10.10;;;;;;;;;;5000627;28;20499;-70
2022/12/21 10:50:03;;;;;;;13.98;9.82;;;;;;;;;;5013869;28;20049;-68
2022/12/21 10:52:34;;;;;;;12.43;9.38;;;;;;;;;;4998674;28;20702;-69
2022/12/21 10:55:00;;;;;;;13.75;10.02;;;;;;;;;;4999437;28;20046;-70
2022/12/21 10:57:29;;;;;;;13.55;9.90;;;;;;;;;;5003946;28;20495;-70
2022/12/21 10:59:55;;;;;;;14.90;9.63;;;;;;;;;;4998972;28;20042;-71
2022/12/21 11:02:34;;;;;;;15.43;9.10;;;;;;;;;;5000972;28;20038;-71
2022/12/21 11:04:59;;;;;;;11.13;7.85;;;;;;;;;;5013495;28;20048;-70
2022/12/21 11:07:28;;;;;;;10.10;8.00;;;;;;;;;;5001453;28;20674;-69
2022/12/21 11:10:02;;;;;;;12.75;8.52;;;;;;;;;;5001052;28;20129;-71
2022/12/21 11:12:28;;;;;;;11.55;8.10;;;;;;;;;;4998863;28;20371;-74
2022/12/21 11:14:55;;;;;;;18.02;8.82;;;;;;;;;;4999831;28;20733;-73
2022/12/21 11:17:29;;;;;;;11.73;8.20;;;;;;;;;;5015353;28;20140;-70
2022/12/21 11:20:13;;;;;;;10.68;8.07;;;;;;;;;;4999790;28;20060;-68
2022/12/21 11:22:42;;;;;;;12.80;7.78;;;;;;;;;;5006378;28;20505;-71
2022/12/21 11:25:23;;;;;;;9.70;7.18;;;;;;;;;;4999810;28;20052;-72
2022/12/21 11:27:50;;;;;;;12.55;7.10;;;;;;;;;;4999186;28;20151;-73
2022/12/21 11:30:25;;;;;;;12.10;7.18;;;;;;;;;;4999820;28;20049;-68
2022/12/21 11:32:53;;;;;;;10.95;6.97;;;;;;;;;;4997552;28;20128;-71
2022/12/21 11:35:28;;;;;;;14.50;6.72;;;;;;;;;;4999556;28;20053;-69
2022/12/21 11:38:01;;;;;;;13.45;8.13;;;;;;;;;;4999614;28;20084;-69
2022/12/21 11:40:29;;;;;;;16.90;7.80;;;;;;;;;;5014730;28;20164;-70
2022/12/21 11:42:58;;;;;;;8.30;6.47;;;;;;;;;;5014446;28;20132;-71
2022/12/21 11:45:23;;;;;;;10.68;7.28;;;;;;;;;;4999102;28;20073;-68
2022/12/21 11:48:35;;;;;;;12.65;7.78;;;;;;;;;;5013836;28;20100;-69
2022/12/21 11:51:15;;;;;;;9.90;7.57;;;;;;;;;;5007691;28;20077;-71
2022/12/21 11:54:03;;;;;;;12.75;8.35;;;;;;;;;;5000008;28;20049;-69
2022/12/21 11:56:48;;;;;;;14.20;8.38;;;;;;;;;;4998089;28;20052;-70
2022/12/21 11:59:40;;;;;;;13.27;8.40;;;;;;;;;;4999808;28;20049;-71
2022/12/21 12:02:34;;;;;;;12.85;8.85;;;;;;;;;;4999280;28;20045;-69
2022/12/21 12:05:18;;;;;;;15.68;9.30;;;;;;;;;;5026945;28;20050;-69
2022/12/21 12:07:57;;;;;;;11.45;8.43;;;;;;;;;;4998673;28;20050;-69
2022/12/21 12:10:45;;;;;;;11.20;8.30;;;;;;;;;;4999661;28;20046;-69
2022/12/21 12:13:24;;;;;;;10.60;8.95;;;;;;;;;;4998874;28;20042;-69
2022/12/21 12:16:00;;;;;;;12.80;8.32;;;;;;;;;;4998910;28;21421;-69
2022/12/21 12:18:41;;;;;;;14.48;8.70;;;;;;;;;;4996238;28;20107;-75
2022/12/21 12:21:27;;;;;;;13.50;9.45;;;;;;;;;;4999050;28;20153;-70
2022/12/21 12:24:13;;;;;;;12.70;9.38;;;;;;;;;;4999360;28;21077;-70
2022/12/21 12:26:47;;;;;;;13.27;9.10;;;;;;;;;;4998575;28;20073;-70
2022/12/21 12:29:22;;;;;;;14.20;8.88;;;;;;;;;;4996629;28;20967;-69
2022/12/21 12:31:57;;;;;;;15.80;9.45;;;;;;;;;;5014461;28;20104;-69
2022/12/21 12:34:40;;;;;;;12.13;8.73;;;;;;;;;;4999175;28;20157;-69
2022/12/21 12:37:33;;;;;;;15.57;9.98;;;;;;;;;;5000011;28;20053;-70
2022/12/21 12:40:27;;;;;;;14.02;10.30;;;;;;;;;;4997117;28;20081;-69
2022/12/21 12:43:03;;;;;;;15.40;10.65;;;;;;;;;;5028695;28;20052;-71
2022/12/21 12:45:57;;;;;;;16.17;11.65;;;;;;;;;;4999497;28;20609;-70
2022/12/21 12:48:34;;;;;;;14.80;10.63;;;;;;;;;;4998674;28;20056;-69
2022/12/21 12:51:10;;;;;;;16.63;10.70;;;;;;;;;;4997125;28;20053;-71
2022/12/21 12:53:41;;;;;;;15.82;10.20;;;;;;;;;;4997328;28;20049;-70
2022/12/21 12:56:09;;;;;;;15.95;10.90;;;;;;;;;;4998292;28;20087;-70
2022/12/21 12:58:41;;;;;;;16.77;12.32;;;;;;;;;;4997083;28;20046;-70
2022/12/21 13:01:51;;;;;;;18.00;13.32;;;;;;;;;;4995603;28;20061;-70
2022/12/21 13:04:47;;;;;;;32.53;19.38;;;;;;;;;;4990067;28;20136;-70
2022/12/21 13:07:20;;;;;;;25.40;17.33;;;;;;;;;;5007907;28;20047;-69
2022/12/21 13:10:05;;;;;;;23.92;16.67;;;;;;;;;;4995713;28;20073;-69
2022/12/21 13:12:31;;;;;;;22.10;16.15;;;;;;;;;;4995124;28;20367;-71
2022/12/21 13:15:21;;;;;;;23.25;17.35;;;;;;;;;;4999428;28;20503;-70
2022/12/21 13:18:12;;;;;;;20.35;15.35;;;;;;;;;;5001216;28;20470;-69
2022/12/21 13:20:40;;;;;;;25.55;15.95;;;;;;;;;;5001624;28;20531;-71
2022/12/21 13:23:17;;;;;;;24.60;15.27;;;;;;;;;;5001033;28;20049;-70
2022/12/21 13:25:58;;;;;;;20.92;14.95;;;;;;;;;;5016781;28;20418;-70
2022/12/21 13:28:32;;;;;;;22.67;16.25;;;;;;;;;;4999887;28;20391;-69
2022/12/21 13:31:03;;;;;;;22.38;16.45;;;;;;;;;;5001736;28;20045;-69
2022/12/21 13:33:33;;;;;;;17.33;12.73;;;;;;;;;;5000566;28;20050;-69
2022/12/21 13:36:11;;;;;;;17.85;13.35;;;;;;;;;;5001179;28;20037;-68
2022/12/21 13:38:40;;;;;;;17.55;13.43;;;;;;;;;;5016087;28;20132;-70
2022/12/21 13:41:24;;;;;;;18.27;12.52;;;;;;;;;;5017014;28;20042;-68
2022/12/21 13:44:45;;;;;;;18.15;12.13;;;;;;;;;;4997580;28;20053;-69
2022/12/21 13:47:12;;;;;;;18.17;11.02;;;;;;;;;;4971060;28;20434;-69
2022/12/21 13:50:13;;;;;;;15.70;11.32;;;;;;;;;;5001152;28;20042;-68
2022/12/21 13:52:48;;;;;;;16.67;12.57;;;;;;;;;;5015369;28;20100;-69
2022/12/21 13:55:37;;;;;;;15.02;11.07;;;;;;;;;;5001158;28;20061;-71
2022/12/21 13:58:21;;;;;;;18.08;11.27;;;;;;;;;;5001056;28;20053;-67
2022/12/21 14:01:01;;;;;;;15.30;10.15;;;;;;;;;;5000363;28;20077;-65
2022/12/21 14:03:44;;;;;;;18.33;11.70;;;;;;;;;;4997816;28;20042;-69
2022/12/21 14:06:20;;;;;;;15.57;11.50;;;;;;;;;;5000663;28;20053;-69
2022/12/21 14:08:57;;;;;;;17.23;10.65;;;;;;;;;;5000912;28;20045;-68
2022/12/21 14:11:50;;;;;;;17.83;11.45;;;;;;;;;;5002152;28;20221;-67
2022/12/21 14:14:44;;;;;;;15.93;10.25;;;;;;;;;;4999739;28;20707;-67
2022/12/21 14:17:16;;;;;;;12.70;8.93;;;;;;;;;;5026053;28;20065;-67
2022/12/21 14:19:50;;;;;;;13.93;9.85;;;;;;;;;;5001169;28;20049;-67
2022/12/21 14:22:34;;;;;;;14.63;9.55;;;;;;;;;;5001596;28;20054;-68
2022/12/21 14:25:02;;;;;;;12.70;9.55;;;;;;;;;;5022979;28;21394;-68
2022/12/21 14:27:28;;;;;;;13.68;10.23;;;;;;;;;;5000665;28;20054;-69
2022/12/21 14:30:14;;;;;;;15.55;11.05;;;;;;;;;;4998144;28;20113;-70
2022/12/21 14:32:40;;;;;;;18.75;12.23;;;;;;;;;;4998921;28;20538;-70
2022/12/21 14:35:37;;;;;;;15.25;11.95;;;;;;;;;;5000283;28;20100;-72
2022/12/21 14:38:26;;;;;;;17.88;11.18;;;;;;;;;;5000492;28;20057;-70
2022/12/21 14:41:17;;;;;;;18.73;9.43;;;;;;;;;;4998785;28;20061;-69
2022/12/21 14:44:23;;;;;;;15.63;12.03;;;;;;;;;;4999096;28;20137;-69
2022/12/21 14:47:03;;;;;;;19.30;12.88;;;;;;;;;;5000705;28;20066;-70
2022/12/21 14:49:34;;;;;;;16.52;11.20;;;;;;;;;;5001834;28;20491;-70
2022/12/21 14:52:12;;;;;;;18.98;12.20;;;;;;;;;;4999494;28;20136;-69
2022/12/21 14:54:39;;;;;;;18.15;12.65;;;;;;;;;;5001253;28;20042;-67
2022/12/21 14:57:10;;;;;;;23.15;13.15;;;;;;;;;;5001604;28;20480;-68
2022/12/21 15:00:18;;;;;;;19.70;13.85;;;;;;;;;;5001538;28;20044;-68
2022/12/21 15:02:43;;;;;;;27.15;16.23;;;;;;;;;;4977635;28;20058;-69
2022/12/21 15:05:49;;;;;;;22.40;13.75;;;;;;;;;;4979602;28;20049;-68